Time;durP1;ratioP1;P1;durP2;ratioP2;P2;SDS_P1;SDS_P2;PMS_P1;PMS_P2;Temp;Humidity;BMP_temperature;BMP_pressure;BME280_temperature;BME280_humidity;BME280_pressure;Samples;Min_cycle;Max_cycle;Signal;HPM_P1;HPM_P2
2023/10/31 00:01:51;;;;;;;;;;;;;;;15.25;62.72;98706.47;4963129;28;6802;-72
2023/10/31 00:04:17;;;;;;;;;;;;;;;15.22;62.68;98702.19;4958361;28;6863;-72
2023/10/31 00:06:43;;;;;;;;;;;;;;;15.18;63.08;98704.75;4964358;28;6800;-73
2023/10/31 00:09:10;;;;;;;;;;;;;;;15.14;62.27;98712.47;4961178;28;6861;-72
2023/10/31 00:11:36;;;;;;;;;;;;;;;15.13;62.45;98713.31;4938549;28;7287;-73
2023/10/31 00:14:03;;;;;;;;;;;;;;;15.09;63.07;98716.75;4961551;28;6796;-73
2023/10/31 00:16:29;;;;;;;;;;;;;;;15.06;62.96;98719.31;4963075;28;7146;-72
2023/10/31 00:18:55;;;;;;;;;;;;;;;15.06;63.04;98728.78;4964274;28;6796;-72
2023/10/31 00:21:20;;;;;;;;;;;;;;;15.03;63.03;98727.06;4965345;28;7218;-73
2023/10/31 00:23:48;;;;;;;;;;;;;;;15.02;63.02;98729.63;4948323;28;7322;-73
2023/10/31 00:26:15;;;;;;;;;;;;;;;14.99;62.34;98725.34;4962960;28;6808;-73
2023/10/31 00:28:40;;;;;;;;;;;;;;;14.95;62.66;98718.44;4947108;28;6973;-72
2023/10/31 00:31:08;;;;;;;;;;;;;;;14.89;62.75;98729.59;4964234;28;6983;-73
2023/10/31 00:33:34;;;;;;;;;;;;;;;14.81;62.22;98728.69;4965647;28;6799;-73
2023/10/31 00:36:00;;;;;;;;;;;;;;;14.74;62.41;98735.56;4964109;28;6975;-73
2023/10/31 00:38:26;;;;;;;;;;;;;;;14.69;62.90;98738.06;4966353;28;6833;-73
2023/10/31 00:40:51;;;;;;;;;;;;;;;14.66;62.96;98737.19;4965895;28;6780;-73
2023/10/31 00:43:17;;;;;;;;;;;;;;;14.65;63.15;98736.34;4963945;28;6792;-73
2023/10/31 00:45:43;;;;;;;;;;;;;;;14.64;62.71;98738.91;4962653;28;7050;-72
2023/10/31 00:48:08;;;;;;;;;;;;;;;14.63;63.35;98750.09;4963877;28;6784;-73
2023/10/31 00:50:34;;;;;;;;;;;;;;;14.65;62.51;98762.13;4965659;28;7007;-72
2023/10/31 00:52:59;;;;;;;;;;;;;;;14.63;62.65;98745.81;4964375;28;6923;-72
2023/10/31 00:55:25;;;;;;;;;;;;;;;14.67;62.79;98755.25;4963413;28;6960;-73
2023/10/31 00:57:52;;;;;;;;;;;;;;;14.67;62.24;98756.97;4963790;28;7255;-72
2023/10/31 01:00:18;;;;;;;;;;;;;;;14.65;63.06;98763.84;4979154;28;6868;-73
2023/10/31 01:02:43;;;;;;;;;;;;;;;14.60;62.65;98768.13;4945583;28;7078;-72
2023/10/31 01:05:10;;;;;;;;;;;;;;;14.55;62.66;98774.09;4962372;28;7005;-73
2023/10/31 01:07:36;;;;;;;;;;;;;;;14.51;63.13;98780.09;4960848;28;6784;-73
2023/10/31 01:10:03;;;;;;;;;;;;;;;14.50;63.41;98777.50;4961902;28;6852;-72
2023/10/31 01:12:29;;;;;;;;;;;;;;;14.48;62.97;98774.06;4955740;28;7181;-73
2023/10/31 01:14:55;;;;;;;;;;;;;;;14.43;63.38;98774.03;4959689;28;6933;-73
2023/10/31 01:17:21;;;;;;;;;;;;;;;14.42;63.13;98777.47;4958029;28;7035;-73
2023/10/31 01:19:47;;;;;;;;;;;;;;;14.37;62.82;98771.41;4961304;28;7437;-72
2023/10/31 01:22:12;;;;;;;;;;;;;;;14.30;62.48;98773.97;4929581;28;6972;-72
2023/10/31 01:24:38;;;;;;;;;;;;;;;14.24;63.03;98781.63;4959746;28;6845;-72
2023/10/31 01:27:04;;;;;;;;;;;;;;;14.21;62.92;98778.19;4963936;28;6788;-73
2023/10/31 01:29:29;;;;;;;;;;;;;;;14.19;63.76;98791.03;4962477;28;7287;-73
2023/10/31 01:31:55;;;;;;;;;;;;;;;14.19;63.04;98783.31;4979083;28;6868;-73
2023/10/31 01:34:21;;;;;;;;;;;;;;;14.17;63.79;98790.16;4980878;28;7127;-73
2023/10/31 01:36:47;;;;;;;;;;;;;;;14.19;63.77;98793.63;4965373;28;6923;-72
2023/10/31 01:39:12;;;;;;;;;;;;;;;14.21;63.96;98789.38;4963221;28;6772;-72
2023/10/31 01:41:42;;;;;;;;;;;;;;;14.24;63.45;98794.53;4965030;28;7864;-72
2023/10/31 01:44:08;;;;;;;;;;;;;;;14.27;64.14;98798.84;4967433;28;6788;-72
2023/10/31 01:46:33;;;;;;;;;;;;;;;14.27;63.20;98797.13;4965919;28;6901;-72
2023/10/31 01:48:59;;;;;;;;;;;;;;;14.29;63.65;98792.84;4948836;28;6965;-72
2023/10/31 01:51:26;;;;;;;;;;;;;;;14.32;63.66;98788.56;4944600;28;6903;-73
2023/10/31 01:53:52;;;;;;;;;;;;;;;14.34;63.27;98784.28;4956545;28;6781;-72
2023/10/31 01:56:20;;;;;;;;;;;;;;;14.34;63.19;98789.44;4965540;28;6811;-72
2023/10/31 01:58:47;;;;;;;;;;;;;;;14.36;63.61;98788.59;4964121;28;6859;-72
2023/10/31 02:01:13;;;;;;;;;;;;;;;14.38;63.82;98788.59;4958864;28;7288;-72
2023/10/31 02:03:38;;;;;;;;;;;;;;;14.41;63.65;98778.31;4958815;28;6780;-72
2023/10/31 02:06:05;;;;;;;;;;;;;;;14.42;63.36;98785.19;4965043;28;7132;-73
2023/10/31 02:08:31;;;;;;;;;;;;;;;14.43;63.81;98779.19;4965807;28;7007;-72
2023/10/31 02:10:56;;;;;;;;;;;;;;;14.44;63.08;98786.06;4956101;28;6804;-72
2023/10/31 02:13:22;;;;;;;;;;;;;;;14.42;62.95;98786.03;4943592;28;6871;-72
2023/10/31 02:15:48;;;;;;;;;;;;;;;14.41;62.81;98783.47;4962895;28;6784;-72
2023/10/31 02:18:14;;;;;;;;;;;;;;;14.39;63.39;98783.47;4942413;28;6954;-72
2023/10/31 02:20:40;;;;;;;;;;;;;;;14.39;63.47;98775.72;4958306;28;6796;-72
2023/10/31 02:23:06;;;;;;;;;;;;;;;14.37;62.92;98774.84;4982268;28;6807;-72
2023/10/31 02:25:32;;;;;;;;;;;;;;;14.35;63.31;98779.16;4942634;28;6869;-72
2023/10/31 02:27:58;;;;;;;;;;;;;;;14.32;62.42;98779.09;4959257;28;6788;-73
2023/10/31 02:30:25;;;;;;;;;;;;;;;14.28;62.73;98773.06;4962800;28;6796;-72
2023/10/31 02:32:51;;;;;;;;;;;;;;;14.29;62.59;98781.69;4963395;28;8032;-73
2023/10/31 02:35:18;;;;;;;;;;;;;;;14.27;62.86;98780.81;4958760;28;6835;-72
2023/10/31 02:37:45;;;;;;;;;;;;;;;14.28;63.38;98783.38;4961331;28;7393;-73
2023/10/31 02:40:11;;;;;;;;;;;;;;;14.27;63.21;98775.66;4979806;28;6788;-73
2023/10/31 02:42:37;;;;;;;;;;;;;;;14.28;63.50;98779.94;4962964;28;6799;-72
2023/10/31 02:45:03;;;;;;;;;;;;;;;14.31;62.56;98790.28;4942489;28;7021;-73
2023/10/31 02:47:29;;;;;;;;;;;;;;;14.29;62.92;98784.25;4948561;28;7151;-72
2023/10/31 02:49:55;;;;;;;;;;;;;;;14.32;62.91;98793.72;4966061;28;7107;-72
2023/10/31 02:52:20;;;;;;;;;;;;;;;14.34;62.94;98787.75;4965972;28;6927;-72
2023/10/31 02:54:46;;;;;;;;;;;;;;;14.38;63.72;98788.59;4959133;28;6844;-72
2023/10/31 02:57:12;;;;;;;;;;;;;;;14.42;63.50;98790.34;4964469;28;6772;-73
2023/10/31 02:59:37;;;;;;;;;;;;;;;14.45;63.29;98795.53;4942647;28;6951;-72
2023/10/31 03:02:03;;;;;;;;;;;;;;;14.50;63.73;98790.41;4948718;28;6931;-73
2023/10/31 03:04:29;;;;;;;;;;;;;;;14.54;63.39;98787.84;4965636;28;7223;-72
2023/10/31 03:06:54;;;;;;;;;;;;;;;14.59;62.99;98790.44;4964587;28;6959;-72
2023/10/31 03:09:20;;;;;;;;;;;;;;;14.61;62.89;98798.22;4964979;28;7100;-72
2023/10/31 03:11:45;;;;;;;;;;;;;;;14.65;63.36;98792.19;4963998;28;7330;-73
2023/10/31 03:14:11;;;;;;;;;;;;;;;14.67;62.88;98790.50;4964254;28;6780;-72
2023/10/31 03:16:37;;;;;;;;;;;;;;;14.70;62.93;98800.84;4965312;28;6868;-73
2023/10/31 03:19:02;;;;;;;;;;;;;;;14.74;63.27;98792.28;4965400;28;6855;-72
2023/10/31 03:21:28;;;;;;;;;;;;;;;14.77;63.21;98794.88;4963110;28;6991;-72
2023/10/31 03:23:55;;;;;;;;;;;;;;;14.81;62.98;98804.38;4965879;28;6829;-72
2023/10/31 03:26:22;;;;;;;;;;;;;;;14.82;63.02;98800.06;4965023;28;6800;-72
2023/10/31 03:28:48;;;;;;;;;;;;;;;14.85;62.64;98808.66;4956006;28;7857;-72
2023/10/31 03:31:14;;;;;;;;;;;;;;;14.89;62.73;98819.03;4961344;28;6806;-72
2023/10/31 03:33:41;;;;;;;;;;;;;;;14.90;63.10;98821.59;4967046;28;6856;-73
2023/10/31 03:36:08;;;;;;;;;;;;;;;14.92;62.78;98817.31;4945340;28;7002;-73
2023/10/31 03:38:35;;;;;;;;;;;;;;;14.93;62.12;98818.16;4965854;28;7156;-73
2023/10/31 03:41:01;;;;;;;;;;;;;;;14.90;62.69;98820.75;4962316;28;7070;-72
2023/10/31 03:43:27;;;;;;;;;;;;;;;14.82;62.41;98820.69;4964888;28;7273;-72
2023/10/31 03:45:54;;;;;;;;;;;;;;;14.78;62.50;98827.56;4961141;28;6779;-72
2023/10/31 03:48:19;;;;;;;;;;;;;;;14.76;62.76;98830.97;4961704;28;6995;-73
2023/10/31 03:50:45;;;;;;;;;;;;;;;14.73;62.47;98834.41;4960005;28;6772;-72
2023/10/31 03:53:11;;;;;;;;;;;;;;;14.71;62.83;98829.19;4949942;28;7022;-76
2023/10/31 03:55:36;;;;;;;;;;;;;;;14.70;62.70;98832.63;4946763;28;6976;-76
2023/10/31 03:58:02;;;;;;;;;;;;;;;14.69;62.64;98840.38;4942640;28;7133;-75
2023/10/31 04:00:28;;;;;;;;;;;;;;;14.67;62.56;98847.22;4957507;28;7754;-76
2023/10/31 04:02:54;;;;;;;;;;;;;;;14.66;62.71;98845.50;4964163;28;7912;-76
2023/10/31 04:05:19;;;;;;;;;;;;;;;14.63;62.04;98843.78;4959503;28;6972;-74
2023/10/31 04:07:46;;;;;;;;;;;;;;;14.64;62.98;98848.06;4960548;28;6772;-76
2023/10/31 04:10:12;;;;;;;;;;;;;;;14.63;62.70;98846.34;4963907;28;7849;-76
2023/10/31 04:12:39;;;;;;;;;;;;;;;14.66;62.88;98856.69;4961398;28;7179;-76
2023/10/31 04:15:05;;;;;;;;;;;;;;;14.69;62.64;98848.09;4964972;28;8002;-74
2023/10/31 04:17:31;;;;;;;;;;;;;;;14.73;62.62;98855.03;4962267;28;7292;-75
2023/10/31 04:19:57;;;;;;;;;;;;;;;14.76;62.52;98857.63;4957407;28;6780;-74
2023/10/31 04:22:22;;;;;;;;;;;;;;;14.79;62.45;98867.97;4961947;28;7118;-77
2023/10/31 04:24:48;;;;;;;;;;;;;;;14.81;62.81;98868.84;4961747;28;6775;-77
2023/10/31 04:27:13;;;;;;;;;;;;;;;14.83;62.73;98874.88;4962244;28;6803;-74
2023/10/31 04:29:39;;;;;;;;;;;;;;;14.85;62.72;98878.31;4964004;28;6780;-75
2023/10/31 04:32:05;;;;;;;;;;;;;;;14.89;62.43;98884.34;4970446;28;9379;-75
2023/10/31 04:34:31;;;;;;;;;;;;;;;14.89;62.39;98889.50;4961221;28;8222;-77
2023/10/31 04:36:57;;;;;;;;;;;;;;;14.89;62.43;98892.09;4963206;28;7841;-78
2023/10/31 04:39:22;;;;;;;;;;;;;;;14.92;62.69;98891.25;4960775;28;6941;-78
2023/10/31 04:41:48;;;;;;;;;;;;;;;14.92;62.41;98894.72;5002662;23;7243;-80
2023/10/31 04:44:14;;;;;;;;;;;;;;;14.95;62.30;98894.72;4960733;28;6851;-82
2023/10/31 04:46:39;;;;;;;;;;;;;;;14.95;62.10;98893.84;4938758;28;8490;-81
2023/10/31 04:49:05;;;;;;;;;;;;;;;14.97;61.93;98902.47;4980087;28;8704;-81
2023/10/31 04:51:38;;;;;;;;;;;;;;;14.96;61.89;98900.72;4963954;28;8522;-82
2023/10/31 04:54:04;;;;;;;;;;;;;;;14.95;61.87;98907.63;4991388;28;6792;-84
2023/10/31 04:56:30;;;;;;;;;;;;;;;14.95;62.11;98911.91;4949184;28;8585;-84
2023/10/31 04:58:55;;;;;;;;;;;;;;;14.94;62.17;98911.06;4992469;28;6776;-84
2023/10/31 05:01:22;;;;;;;;;;;;;;;14.95;62.05;98914.47;4958461;28;6787;-85
2023/10/31 05:03:48;;;;;;;;;;;;;;;14.93;61.39;98923.94;4958662;28;7091;-85
2023/10/31 05:06:20;;;;;;;;;;;;;;;14.93;61.46;98929.09;4956101;28;6947;-82
2023/10/31 05:08:47;;;;;;;;;;;;;;;14.94;61.16;98930.81;4962696;28;8636;-86
2023/10/31 05:11:12;;;;;;;;;;;;;;;14.94;61.39;98936.84;4964900;28;6800;-86
2023/10/31 05:13:39;;;;;;;;;;;;;;;14.93;60.99;98939.41;4962412;28;7723;-85
2023/10/31 05:16:06;;;;;;;;;;;;;;;14.92;61.63;98941.16;4960484;28;7432;-85
2023/10/31 05:18:31;;;;;;;;;;;;;;;14.92;61.43;98946.31;4979313;28;8500;-85
2023/10/31 05:20:57;;;;;;;;;;;;;;;14.92;61.68;98942.84;4983278;28;6824;-85
2023/10/31 05:23:22;;;;;;;;;;;;;;;14.93;61.30;98942.00;4971122;28;6802;-84
2023/10/31 05:25:51;;;;;;;;;;;;;;;14.94;61.33;98951.44;4987069;28;8428;-85
2023/10/31 05:28:16;;;;;;;;;;;;;;;14.92;61.31;98942.84;4962909;28;6978;-84
2023/10/31 05:30:43;;;;;;;;;;;;;;;14.92;60.93;98950.59;4987899;28;8466;-83
2023/10/31 05:33:09;;;;;;;;;;;;;;;14.90;61.22;98947.13;4966350;28;7112;-83
2023/10/31 05:35:35;;;;;;;;;;;;;;;14.89;60.94;98956.56;4963833;28;7154;-84
2023/10/31 05:38:01;;;;;;;;;;;;;;;14.86;60.95;98956.56;4987456;28;7346;-84
2023/10/31 05:40:27;;;;;;;;;;;;;;;14.81;61.01;98961.69;4963306;28;7290;-84
2023/10/31 05:42:53;;;;;;;;;;;;;;;14.76;60.75;98967.66;4979735;28;8526;-84
2023/10/31 05:45:19;;;;;;;;;;;;;;;14.71;60.83;98981.34;4971753;28;6937;-84
2023/10/31 05:47:44;;;;;;;;;;;;;;;14.70;60.73;98987.34;4956143;28;8692;-86
2023/10/31 05:50:10;;;;;;;;;;;;;;;14.72;61.19;98996.00;4944154;28;8369;-86
2023/10/31 05:52:36;;;;;;;;;;;;;;;14.69;61.38;98985.63;4952299;23;7145;-86
2023/10/31 05:55:02;;;;;;;;;;;;;;;14.69;61.49;98995.09;5013027;28;8426;-83
2023/10/31 05:57:28;;;;;;;;;;;;;;;14.69;60.99;99001.09;4954781;28;7707;-83
2023/10/31 05:59:53;;;;;;;;;;;;;;;14.67;60.86;98997.66;4995220;28;8286;-84
2023/10/31 06:02:19;;;;;;;;;;;;;;;14.67;61.21;98997.66;4966331;28;6784;-84
2023/10/31 06:04:45;;;;;;;;;;;;;;;14.65;61.35;98995.91;4976245;28;8517;-84
2023/10/31 06:07:12;;;;;;;;;;;;;;;14.64;60.96;99007.06;4984578;28;8918;-84
2023/10/31 06:09:38;;;;;;;;;;;;;;;14.60;60.89;99013.06;4967940;28;6780;-84
2023/10/31 06:12:05;;;;;;;;;;;;;;;14.56;60.68;99018.16;4984757;28;7149;-84
2023/10/31 06:14:31;;;;;;;;;;;;;;;14.55;60.61;99023.31;4961047;28;6808;-83
2023/10/31 06:16:59;;;;;;;;;;;;;;;14.56;61.03;99023.31;4994011;28;8518;-83
2023/10/31 06:19:25;;;;;;;;;;;;;;;14.57;61.09;99027.63;4993777;28;8458;-84
2023/10/31 06:21:52;;;;;;;;;;;;;;;14.59;61.04;99030.22;4975567;28;7185;-84
2023/10/31 06:24:18;;;;;;;;;;;;;;;14.60;61.42;99031.09;4994117;28;6772;-83
2023/10/31 06:26:43;;;;;;;;;;;;;;;14.60;61.47;99036.25;4950645;28;8489;-83
2023/10/31 06:29:09;;;;;;;;;;;;;;;14.60;60.70;99041.41;4980034;28;8655;-84
2023/10/31 06:31:35;;;;;;;;;;;;;;;14.59;60.76;99045.69;4992477;28;6948;-84
2023/10/31 06:34:00;;;;;;;;;;;;;;;14.62;61.49;99050.03;4961201;28;6784;-82
2023/10/31 06:36:26;;;;;;;;;;;;;;;14.64;61.60;99053.47;5011127;28;8383;-81
2023/10/31 06:38:51;;;;;;;;;;;;;;;14.65;61.01;99043.19;4984304;28;7035;-82
2023/10/31 06:41:20;;;;;;;;;;;;;;;14.68;61.20;99056.09;4994910;28;6930;-81
2023/10/31 06:43:49;;;;;;;;;;;;;;;14.70;60.97;99050.97;4982921;28;8567;-80
2023/10/31 06:46:15;;;;;;;;;;;;;;;14.70;61.61;99053.53;5012660;28;8814;-84
2023/10/31 06:48:46;;;;;;;;;;;;;;;14.72;60.72;99057.88;4979660;28;8259;-84
2023/10/31 06:51:12;;;;;;;;;;;;;;;14.72;61.62;99062.16;4962910;28;6784;-84
2023/10/31 06:53:37;;;;;;;;;;;;;;;14.75;60.75;99064.78;4943262;28;8582;-82
2023/10/31 06:56:03;;;;;;;;;;;;;;;14.77;60.83;99064.81;4966922;28;8519;-82
2023/10/31 06:58:29;;;;;;;;;;;;;;;14.77;61.06;99070.81;4967057;28;7178;-81
2023/10/31 07:00:58;;;;;;;;;;;;;;;14.79;60.81;99074.31;4967589;28;6856;-83
2023/10/31 07:03:25;;;;;;;;;;;;;;;14.81;61.04;99075.19;4966205;28;7044;-82
2023/10/31 07:05:52;;;;;;;;;;;;;;;14.85;60.98;99068.34;4966006;28;7351;-81
2023/10/31 07:08:18;;;;;;;;;;;;;;;14.85;60.99;99069.19;4967244;28;8571;-81
2023/10/31 07:10:43;;;;;;;;;;;;;;;14.85;60.48;99076.91;4961202;28;6915;-81
2023/10/31 07:13:09;;;;;;;;;;;;;;;14.84;60.37;99077.78;4960915;28;6780;-81
2023/10/31 07:15:38;;;;;;;;;;;;;;;14.81;60.92;99067.44;4967476;28;7578;-80
2023/10/31 07:18:07;;;;;;;;;;;;;;;14.82;61.03;99068.28;4950441;28;7838;-82
2023/10/31 07:20:33;;;;;;;;;;;;;;;14.84;60.98;99072.63;4962026;28;8359;-81
2023/10/31 07:22:59;;;;;;;;;;;;;;;14.86;61.06;99075.22;4980759;28;8542;-81
2023/10/31 07:25:24;;;;;;;;;;;;;;;14.86;61.08;99070.06;4975405;28;8636;-79
2023/10/31 07:27:50;;;;;;;;;;;;;;;14.89;60.78;99080.41;4972475;28;8601;-81
2023/10/31 07:30:16;;;;;;;;;;;;;;;14.94;60.96;99080.44;4965407;28;8023;-82
2023/10/31 07:32:42;;;;;;;;;;;;;;;14.97;61.24;99081.34;4967099;28;6947;-82
2023/10/31 07:35:08;;;;;;;;;;;;;;;15.03;61.38;99084.84;4951434;28;8315;-81
2023/10/31 07:37:33;;;;;;;;;;;;;;;15.07;61.35;99087.44;4976075;28;8377;-80
2023/10/31 07:39:59;;;;;;;;;;;;;;;15.13;60.45;99081.47;4952575;28;8634;-82
2023/10/31 07:42:24;;;;;;;;;;;;;;;15.16;60.73;99089.22;4960702;28;6808;-81
2023/10/31 07:44:50;;;;;;;;;;;;;;;15.18;60.70;99084.94;4950709;28;6801;-81
2023/10/31 07:47:16;;;;;;;;;;;;;;;15.18;60.58;99092.69;4956529;28;8068;-80
2023/10/31 07:49:42;;;;;;;;;;;;;;;15.17;60.24;99090.13;4967098;28;7043;-80
2023/10/31 07:52:08;;;;;;;;;;;;;;;15.15;60.25;99097.84;4965030;28;8033;-82
2023/10/31 07:54:34;;;;;;;;;;;;;;;15.17;60.16;99100.44;4942746;28;8480;-82
2023/10/31 07:57:01;;;;;;;;;;;;;;;15.21;60.45;99104.75;4964612;28;6780;-82
2023/10/31 07:59:27;;;;;;;;;;;;;;;15.27;60.22;99117.72;4961568;28;8434;-82
2023/10/31 08:01:52;;;;;;;;;;;;;;;15.31;60.46;99113.47;4964665;28;6788;-82
2023/10/31 08:04:18;;;;;;;;;;;;;;;15.38;60.44;99117.78;4965188;28;7189;-82
2023/10/31 08:06:44;;;;;;;;;;;;;;;15.43;60.08;99120.41;4965752;28;6764;-81
2023/10/31 08:09:09;;;;;;;;;;;;;;;15.48;59.87;99123.91;4948429;28;7243;-82
2023/10/31 08:11:36;;;;;;;;;;;;;;;15.47;59.80;99120.44;4964650;28;7110;-81
2023/10/31 08:14:02;;;;;;;;;;;;;;;15.43;59.16;99125.56;4959125;28;8797;-84
2023/10/31 08:16:28;;;;;;;;;;;;;;;15.34;59.46;99129.81;4923149;28;7672;-82
2023/10/31 08:18:54;;;;;;;;;;;;;;;15.28;59.33;99138.38;4958705;28;7594;-83
2023/10/31 08:21:20;;;;;;;;;;;;;;;15.24;59.36;99144.38;4980870;28;7197;-83
2023/10/31 08:23:46;;;;;;;;;;;;;;;15.23;59.16;99137.47;4980869;28;7200;-83
2023/10/31 08:26:13;;;;;;;;;;;;;;;15.24;59.24;99140.91;4964962;28;6776;-83
2023/10/31 08:28:39;;;;;;;;;;;;;;;15.25;59.38;99146.09;4963271;28;8815;-83
2023/10/31 08:31:05;;;;;;;;;;;;;;;15.26;59.54;99145.25;4952217;28;8492;-83
2023/10/31 08:33:30;;;;;;;;;;;;;;;15.30;59.53;99147.84;4956593;28;8513;-83
2023/10/31 08:35:56;;;;;;;;;;;;;;;15.35;59.27;99149.59;4975546;28;8447;-83
2023/10/31 08:38:22;;;;;;;;;;;;;;;15.37;59.58;99137.59;4942151;28;8090;-83
2023/10/31 08:40:49;;;;;;;;;;;;;;;15.37;59.38;99142.75;4955881;28;7659;-83
2023/10/31 08:43:14;;;;;;;;;;;;;;;15.39;59.38;99153.97;4958875;28;8410;-83
2023/10/31 08:45:40;;;;;;;;;;;;;;;15.38;59.16;99159.09;4960838;28;6804;-83
2023/10/31 08:48:09;;;;;;;;;;;;;;;15.39;59.03;99158.25;4988158;28;8381;-83
2023/10/31 08:50:34;;;;;;;;;;;;;;;15.40;58.85;99150.53;4959043;28;7129;-83
2023/10/31 08:53:00;;;;;;;;;;;;;;;15.40;58.95;99163.44;4931843;28;8443;-83
2023/10/31 08:55:26;;;;;;;;;;;;;;;15.40;58.96;99160.84;4945337;28;8411;-83
2023/10/31 08:57:52;;;;;;;;;;;;;;;15.41;59.67;99164.31;4949038;28;7098;-83
2023/10/31 09:00:19;;;;;;;;;;;;;;;15.43;59.23;99165.19;4941071;28;7153;-83
2023/10/31 09:02:45;;;;;;;;;;;;;;;15.45;59.41;99172.91;4961172;28;6956;-82
2023/10/31 09:05:10;;;;;;;;;;;;;;;15.49;59.30;99174.69;4964483;28;7246;-82
2023/10/31 09:07:36;;;;;;;;;;;;;;;15.54;59.68;99191.06;4978452;28;8771;-82
2023/10/31 09:10:03;;;;;;;;;;;;;;;15.56;58.89;99186.81;4962889;28;6772;-81
2023/10/31 09:12:31;;;;;;;;;;;;;;;15.62;58.79;99192.00;4974005;28;8620;-82
2023/10/31 09:14:56;;;;;;;;;;;;;;;15.67;58.86;99194.63;4960981;28;6995;-81
2023/10/31 09:17:22;;;;;;;;;;;;;;;15.70;58.86;99205.00;4962961;28;6856;-81
2023/10/31 09:19:48;;;;;;;;;;;;;;;15.71;58.82;99198.97;4963421;28;7125;-82
2023/10/31 09:22:13;;;;;;;;;;;;;;;15.77;59.13;99213.66;4973580;28;6788;-81
2023/10/31 09:24:40;;;;;;;;;;;;;;;15.87;58.91;99223.19;4956957;28;8008;-81
2023/10/31 09:27:05;;;;;;;;;;;;;;;15.99;59.04;99224.16;4964575;28;6996;-81
2023/10/31 09:29:31;;;;;;;;;;;;;;;16.12;59.03;99231.13;4963871;28;6773;-81
2023/10/31 09:32:05;;;;;;;;;;;;;;;16.21;58.82;99230.34;4956365;28;7149;-81
2023/10/31 09:34:31;;;;;;;;;;;;;;;16.28;58.73;99236.41;4937910;28;8383;-81
2023/10/31 09:36:58;;;;;;;;;;;;;;;16.30;58.30;99233.00;4946860;28;8420;-81
2023/10/31 09:39:23;;;;;;;;;;;;;;;16.32;57.87;99251.97;4963193;28;6811;-81
2023/10/31 09:41:49;;;;;;;;;;;;;;;16.34;58.28;99242.47;4963672;28;8707;-81
2023/10/31 09:44:15;;;;;;;;;;;;;;;16.42;58.24;99245.13;4956387;28;6799;-81
2023/10/31 09:46:41;;;;;;;;;;;;;;;16.56;58.16;99241.75;4945380;28;8503;-81
2023/10/31 09:49:10;;;;;;;;;;;;;;;16.65;57.86;99239.22;4962977;28;6769;-81
2023/10/31 09:51:38;;;;;;;;;;;;;;;16.75;57.50;99240.97;4959107;28;9567;-81
2023/10/31 09:54:07;;;;;;;;;;;;;;;16.89;58.18;99242.72;4955949;28;7159;-81
2023/10/31 09:56:34;;;;;;;;;;;;;;;17.28;57.30;99240.31;4965012;28;6804;-81
2023/10/31 09:59:02;;;;;;;;;;;;;;;17.75;56.18;99242.06;4966254;28;7310;-81
2023/10/31 10:01:28;;;;;;;;;;;;;;;18.40;56.44;99248.09;4958670;28;8560;-81
2023/10/31 10:03:54;;;;;;;;;;;;;;;19.13;55.04;99251.28;4967188;28;6772;-81
2023/10/31 10:06:23;;;;;;;;;;;;;;;19.91;53.64;99242.09;4966090;28;6871;-82
2023/10/31 10:08:50;;;;;;;;;;;;;;;20.71;52.24;99244.75;4964964;28;7388;-81
2023/10/31 10:11:16;;;;;;;;;;;;;;;21.58;51.04;99246.19;4965695;28;7243;-80
2023/10/31 10:13:41;;;;;;;;;;;;;;;22.34;49.47;99247.50;4952623;28;8330;-80
2023/10/31 10:16:08;;;;;;;;;;;;;;;22.90;48.28;99246.44;4965898;28;8470;-80
2023/10/31 10:18:37;;;;;;;;;;;;;;;23.45;47.39;99243.50;4976411;28;8462;-80
2023/10/31 10:21:05;;;;;;;;;;;;;;;23.94;45.59;99246.66;4983241;28;6800;-80
2023/10/31 10:23:32;;;;;;;;;;;;;;;24.29;45.24;99248.44;4950718;28;8395;-80
2023/10/31 10:26:00;;;;;;;;;;;;;;;24.60;44.58;99242.34;4966797;28;8586;-81
2023/10/31 10:28:29;;;;;;;;;;;;;;;24.96;43.69;99244.81;4991647;28;8747;-80
2023/10/31 10:30:54;;;;;;;;;;;;;;;25.06;42.78;99243.63;4989503;28;8882;-81
2023/10/31 10:33:21;;;;;;;;;;;;;;;25.03;42.73;99256.84;4943500;28;8703;-81
2023/10/31 10:35:47;;;;;;;;;;;;;;;24.95;42.10;99259.69;4981492;28;8432;-80
2023/10/31 10:38:16;;;;;;;;;;;;;;;24.89;42.59;99262.50;4959660;28;6776;-79
2023/10/31 10:40:48;;;;;;;;;;;;;;;24.74;41.89;99266.38;4968048;28;7198;-81
2023/10/31 10:43:20;;;;;;;;;;;;;;;24.63;42.45;99263.22;4974180;28;8784;-81
2023/10/31 10:45:48;;;;;;;;;;;;;;;24.77;42.05;99263.66;4959473;28;8572;-81
2023/10/31 10:48:16;;;;;;;;;;;;;;;24.93;41.52;99271.13;4967022;28;6963;-80
2023/10/31 10:50:46;;;;;;;;;;;;;;;24.88;41.01;99276.50;4978384;28;8526;-80
2023/10/31 10:53:30;;;;;;;;;;;;;;;24.49;40.89;99277.53;4960971;28;6808;-83
2023/10/31 10:56:02;;;;;;;;;;;;;;;23.99;40.81;99278.81;4944202;28;7181;-80
2023/10/31 10:58:55;;;;;;;;;;;;;;;23.24;41.70;99289.25;4966455;28;8610;-80
2023/10/31 11:01:21;;;;;;;;;;;;;;;22.56;43.00;99286.31;4953413;28;7498;-80
2023/10/31 11:03:47;;;;;;;;;;;;;;;22.04;43.34;99284.59;4981779;28;8617;-82
2023/10/31 11:06:14;;;;;;;;;;;;;;;21.59;44.34;99281.78;4983491;28;7228;-85
2023/10/31 11:08:41;;;;;;;;;;;;;;;21.18;44.35;99282.38;4978277;28;8701;-83
2023/10/31 11:11:07;;;;;;;;;;;;;;;20.85;45.25;99289.72;4966244;28;7251;-83
2023/10/31 11:13:34;;;;;;;;;;;;;;;20.65;45.57;99301.19;4946640;28;8400;-83
2023/10/31 11:16:13;;;;;;;;;;;;;;;20.57;45.93;99295.22;4969044;28;8695;-82
2023/10/31 11:18:39;;;;;;;;;;;;;;;20.66;46.24;99296.88;4981232;28;8361;-82
2023/10/31 11:21:05;;;;;;;;;;;;;;;20.78;46.33;99293.25;4965940;28;8356;-82
2023/10/31 11:23:31;;;;;;;;;;;;;;;20.89;46.32;99295.75;4964893;28;7019;-82
2023/10/31 11:25:56;;;;;;;;;;;;;;;20.88;45.87;99294.91;4981414;28;6843;-82
2023/10/31 11:28:22;;;;;;;;;;;;;;;20.78;46.20;99309.72;4962237;28;7002;-82
2023/10/31 11:30:50;;;;;;;;;;;;;;;20.66;46.19;99309.88;4950092;28;8476;-83
2023/10/31 11:33:21;;;;;;;;;;;;;;;20.49;46.24;99307.47;4965574;28;7198;-83
2023/10/31 11:35:59;;;;;;;;;;;;;;;20.51;46.53;99309.16;4949876;28;8510;-83
2023/10/31 11:38:34;;;;;;;;;;;;;;;20.56;46.56;99310.84;4949277;28;8221;-83
2023/10/31 11:41:02;;;;;;;;;;;;;;;20.65;46.33;99319.41;4961163;28;6804;-84
2023/10/31 11:43:40;;;;;;;;;;;;;;;20.65;46.02;99311.59;4959375;28;7172;-83
2023/10/31 11:46:20;;;;;;;;;;;;;;;20.57;46.01;99313.47;4977227;28;8741;-83
2023/10/31 11:48:55;;;;;;;;;;;;;;;20.47;46.15;99317.00;4994644;28;8534;-83
2023/10/31 11:51:21;;;;;;;;;;;;;;;20.58;46.55;99319.50;4967456;28;6799;-83
2023/10/31 11:53:51;;;;;;;;;;;;;;;20.91;46.33;99310.47;4958784;28;10328;-83
2023/10/31 11:56:18;;;;;;;;;;;;;;;21.42;45.44;99301.13;4971440;28;8775;-83
2023/10/31 11:58:44;;;;;;;;;;;;;;;21.61;44.39;99306.97;4961778;28;7424;-82
2023/10/31 12:01:10;;;;;;;;;;;;;;;21.60;44.13;99305.25;4938514;28;8445;-82
2023/10/31 12:03:39;;;;;;;;;;;;;;;21.40;43.99;99302.06;4958098;28;6792;-82
2023/10/31 12:06:06;;;;;;;;;;;;;;;21.14;44.23;99305.88;4979712;28;8544;-82
2023/10/31 12:08:40;;;;;;;;;;;;;;;20.85;44.70;99310.56;4946785;28;8433;-83
2023/10/31 12:11:13;;;;;;;;;;;;;;;20.61;45.13;99314.25;4957129;28;7190;-82
2023/10/31 12:13:41;;;;;;;;;;;;;;;20.36;45.35;99311.91;4958106;28;6811;-83
2023/10/31 12:16:10;;;;;;;;;;;;;;;20.11;45.65;99309.53;4977055;28;6866;-83
2023/10/31 12:18:40;;;;;;;;;;;;;;;19.99;46.79;99313.13;4945090;28;7655;-82
2023/10/31 12:21:51;;;;;;;;;;;;;;;19.96;46.98;99319.19;4964245;28;6835;-82
2023/10/31 12:24:18;;;;;;;;;;;;;;;19.96;47.03;99318.31;4963525;28;7167;-83
2023/10/31 12:26:46;;;;;;;;;;;;;;;19.95;47.38;99311.41;4981382;28;7117;-82
2023/10/31 12:29:20;;;;;;;;;;;;;;;19.95;47.64;99317.47;4974632;28;8502;-82
2023/10/31 12:31:47;;;;;;;;;;;;;;;19.92;47.90;99311.41;4989693;28;6811;-82
2023/10/31 12:34:15;;;;;;;;;;;;;;;20.01;47.72;99311.38;4981243;28;8569;-81
2023/10/31 12:36:42;;;;;;;;;;;;;;;20.06;47.46;99311.31;4959138;28;6995;-81
2023/10/31 12:39:11;;;;;;;;;;;;;;;20.03;47.32;99313.94;4959994;28;6792;-81
2023/10/31 12:41:39;;;;;;;;;;;;;;;19.93;47.27;99314.00;4959799;28;8585;-81
2023/10/31 12:44:06;;;;;;;;;;;;;;;19.83;47.09;99313.19;4975788;28;6919;-81
2023/10/31 12:46:32;;;;;;;;;;;;;;;19.74;47.28;99315.84;4993802;28;8854;-81
2023/10/31 12:48:58;;;;;;;;;;;;;;;19.65;46.96;99314.19;4965230;28;7381;-81
2023/10/31 12:51:25;;;;;;;;;;;;;;;19.62;47.11;99314.19;4965256;28;8618;-83
2023/10/31 12:53:52;;;;;;;;;;;;;;;19.62;47.89;99313.34;4991139;28;6787;-81
2023/10/31 12:56:40;;;;;;;;;;;;;;;19.64;48.01;99311.59;4977291;28;8444;-82